北海道METAR電文


稚内(RJCW)
04/18 18:00
METAR RJCW 180900Z 09006KT 6000 FEW003 SCT004 BKN006 04/03 Q1009 RMK
1ST003 4ST004 6ST006 A2982=

利尻(RJER)
04/18 16:00
RJER 180700Z 06018KT 9999 FEW003 SCT005 BKN007 06/04 Q1008 RMK
A2977=

紋別(RJEB)
04/18 16:00
METAR RJEB 180700Z 35006KT 2000 R32/1300VP2000U -SHRA BR FEW001
BKN002 04/04 Q1009 RMK 1ST001 7ST002 A2981=

女満別(RJCM)
04/18 20:00
METAR RJCM 181100Z 36006KT 7000 -SHRA FEW002 BKN004 BKN008 04/04
Q1009 RMK 1ST002 5ST004 6ST008 A2980=

中標津(RJCN)
04/18 18:00
METAR RJCN 180900Z 05005KT 360V080 4000 -SHRA BR FEW002 BKN003
BKN004 03/03 Q1006 RMK 1ST002 5ST003 7ST004 A2973=

釧路(RJCK)
04/19 04:00
METAR RJCK 181900Z AUTO 06004KT 6000 R35/P2000N FEW001 OVC012 04/04
Q1006 RMK A2971=

十勝(RJCT)
04/19 04:00
METAR RJCT 181900Z NIL=

帯広(RJCB)
04/18 20:00
METAR RJCB 181100Z 02003KT 350V060 9999 FEW030 SCT060 11/09 Q1006
RMK 1CU030 4CU060 A2972=

旭川M(RJCA)
04/19 04:00
METAR RJCA 181900Z NIL=

旭川C(RJEC)
04/19 04:00
METAR RJEC 181900Z AUTO 33007KT 9999 FEW004 BKN008 BKN011 04/04
Q1005 RMK A2969=

丘珠(RJCO)
04/19 04:00
METAR RJCO 181900Z NIL=

新千歳(RJCC)
04/19 04:30
METAR RJCC 181930Z 35010KT 3200 -DZ BR FEW001 BKN002 BKN003 09/09
Q1005 RMK 2ST001 5ST002 7ST003 A2968=

千歳(RJCJ)
04/19 04:00
METAR RJCJ 181900Z 35010KT 1500 R36/P1800N -DZ BR SCT001 BKN002
OVC003 09/09 Q1005 RMK 3ST001 7ST002 8ST003 A2969=

奥尻(RJEO)
04/18 14:00
RJEO 180500Z 18003KT 2000 BR BKN003 10/10 Q1007 RMK A2974=

函館(RJCH)
04/19 04:00
METAR RJCH 181900Z AUTO 03003KT 9999 FEW041 06/05 Q1005 RMK A2968=
Copyright(c) 2014 International Meteorological & Oceanographic Consultants Co,.Ltd. All Rights Reserved. Design by http://f-tpl.com